sensor_id;sensor_type;location;lat;lon;timestamp;temperature;humidity
70830;SHT30;58451;51.550;7.208;2023-06-10T00:00:20;19.69;57.60
70830;SHT30;58451;51.550;7.208;2023-06-10T00:01:52;19.69;57.53
70830;SHT30;58451;51.550;7.208;2023-06-10T00:03:24;19.67;57.55
70830;SHT30;58451;51.550;7.208;2023-06-10T00:04:57;19.65;57.58
70830;SHT30;58451;51.550;7.208;2023-06-10T00:06:30;19.63;57.65
70830;SHT30;58451;51.550;7.208;2023-06-10T00:08:07;19.61;57.68
70830;SHT30;58451;51.550;7.208;2023-06-10T00:09:39;19.58;57.80
70830;SHT30;58451;51.550;7.208;2023-06-10T00:11:11;19.56;57.85
70830;SHT30;58451;51.550;7.208;2023-06-10T00:12:43;19.53;57.95
70830;SHT30;58451;51.550;7.208;2023-06-10T00:14:15;19.51;57.98
70830;SHT30;58451;51.550;7.208;2023-06-10T00:15:47;19.48;58.00
70830;SHT30;58451;51.550;7.208;2023-06-10T00:17:19;19.47;58.07
70830;SHT30;58451;51.550;7.208;2023-06-10T00:18:51;19.43;58.18
70830;SHT30;58451;51.550;7.208;2023-06-10T00:20:23;19.40;58.27
70830;SHT30;58451;51.550;7.208;2023-06-10T00:21:56;19.35;58.47
70830;SHT30;58451;51.550;7.208;2023-06-10T00:23:29;19.32;58.58
70830;SHT30;58451;51.550;7.208;2023-06-10T00:25:02;19.27;58.75
70830;SHT30;58451;51.550;7.208;2023-06-10T00:26:40;19.23;58.92
70830;SHT30;58451;51.550;7.208;2023-06-10T00:28:14;19.20;59.03
70830;SHT30;58451;51.550;7.208;2023-06-10T00:29:46;19.16;59.15
70830;SHT30;58451;51.550;7.208;2023-06-10T00:31:18;19.15;59.27
70830;SHT30;58451;51.550;7.208;2023-06-10T00:32:51;19.10;59.37
70830;SHT30;58451;51.550;7.208;2023-06-10T00:34:23;19.07;59.50
70830;SHT30;58451;51.550;7.208;2023-06-10T00:35:56;19.04;59.53
70830;SHT30;58451;51.550;7.208;2023-06-10T00:37:28;19.00;59.63
70830;SHT30;58451;51.550;7.208;2023-06-10T00:39:03;18.99;59.73
70830;SHT30;58451;51.550;7.208;2023-06-10T00:40:39;18.95;59.85
70830;SHT30;58451;51.550;7.208;2023-06-10T00:42:12;18.92;59.90
70830;SHT30;58451;51.550;7.208;2023-06-10T00:43:44;18.87;60.03
70830;SHT30;58451;51.550;7.208;2023-06-10T00:45:17;18.84;60.15
70830;SHT30;58451;51.550;7.208;2023-06-10T00:46:49;18.80;60.30
70830;SHT30;58451;51.550;7.208;2023-06-10T00:48:22;18.77;60.98
70830;SHT30;58451;51.550;7.208;2023-06-10T00:49:56;18.74;60.77
70830;SHT30;58451;51.550;7.208;2023-06-10T00:51:28;18.71;60.67
70830;SHT30;58451;51.550;7.208;2023-06-10T00:53:00;18.68;60.75
70830;SHT30;58451;51.550;7.208;2023-06-10T00:54:34;18.64;60.93
70830;SHT30;58451;51.550;7.208;2023-06-10T00:56:06;18.62;61.12
70830;SHT30;58451;51.550;7.208;2023-06-10T00:57:39;18.57;61.27
70830;SHT30;58451;51.550;7.208;2023-06-10T00:59:11;18.53;61.38
70830;SHT30;58451;51.550;7.208;2023-06-10T01:00:43;18.49;61.47
70830;SHT30;58451;51.550;7.208;2023-06-10T01:02:16;18.48;61.55
70830;SHT30;58451;51.550;7.208;2023-06-10T01:03:48;18.46;61.63
70830;SHT30;58451;51.550;7.208;2023-06-10T01:05:20;18.44;61.83
70830;SHT30;58451;51.550;7.208;2023-06-10T01:09:40;18.37;62.00
70830;SHT30;58451;51.550;7.208;2023-06-10T01:11:23;18.36;62.08
70830;SHT30;58451;51.550;7.208;2023-06-10T01:13:05;18.32;62.07
70830;SHT30;58451;51.550;7.208;2023-06-10T01:14:43;18.30;62.18
70830;SHT30;58451;51.550;7.208;2023-06-10T01:16:18;18.28;62.37
70830;SHT30;58451;51.550;7.208;2023-06-10T01:17:58;18.25;62.38
70830;SHT30;58451;51.550;7.208;2023-06-10T01:19:37;18.22;62.40
70830;SHT30;58451;51.550;7.208;2023-06-10T01:21:12;18.20;62.55
70830;SHT30;58451;51.550;7.208;2023-06-10T01:22:51;18.18;62.58
70830;SHT30;58451;51.550;7.208;2023-06-10T01:24:28;18.14;62.75
70830;SHT30;58451;51.550;7.208;2023-06-10T01:26:05;18.11;62.80
70830;SHT30;58451;51.550;7.208;2023-06-10T01:27:42;18.08;63.03
70830;SHT30;58451;51.550;7.208;2023-06-10T01:29:21;18.05;63.12
70830;SHT30;58451;51.550;7.208;2023-06-10T01:33:27;17.99;63.35
70830;SHT30;58451;51.550;7.208;2023-06-10T01:35:05;17.98;63.45
70830;SHT30;58451;51.550;7.208;2023-06-10T01:36:41;17.96;63.57
70830;SHT30;58451;51.550;7.208;2023-06-10T01:38:19;17.94;63.72
70830;SHT30;58451;51.550;7.208;2023-06-10T01:39:55;17.92;63.78
70830;SHT30;58451;51.550;7.208;2023-06-10T01:41:30;17.92;63.90
70830;SHT30;58451;51.550;7.208;2023-06-10T01:43:03;17.89;64.23
70830;SHT30;58451;51.550;7.208;2023-06-10T01:44:35;17.88;64.40
70830;SHT30;58451;51.550;7.208;2023-06-10T01:46:07;17.87;64.43
70830;SHT30;58451;51.550;7.208;2023-06-10T01:47:39;17.86;64.38
70830;SHT30;58451;51.550;7.208;2023-06-10T01:49:11;17.84;64.80
70830;SHT30;58451;51.550;7.208;2023-06-10T01:50:43;17.82;64.70
70830;SHT30;58451;51.550;7.208;2023-06-10T01:52:15;17.81;64.63
70830;SHT30;58451;51.550;7.208;2023-06-10T01:53:48;17.79;64.68
70830;SHT30;58451;51.550;7.208;2023-06-10T01:55:20;17.78;64.75
70830;SHT30;58451;51.550;7.208;2023-06-10T01:56:52;17.76;64.90
70830;SHT30;58451;51.550;7.208;2023-06-10T01:58:24;17.74;64.93
70830;SHT30;58451;51.550;7.208;2023-06-10T01:59:56;17.73;65.02
70830;SHT30;58451;51.550;7.208;2023-06-10T02:01:30;17.72;65.05
70830;SHT30;58451;51.550;7.208;2023-06-10T02:03:03;17.69;65.03
70830;SHT30;58451;51.550;7.208;2023-06-10T02:04:35;17.67;65.23
70830;SHT30;58451;51.550;7.208;2023-06-10T02:06:11;17.66;65.63
70830;SHT30;58451;51.550;7.208;2023-06-10T02:07:45;17.65;65.40
70830;SHT30;58451;51.550;7.208;2023-06-10T02:09:27;17.63;65.37
70830;SHT30;58451;51.550;7.208;2023-06-10T02:11:01;17.59;65.38
70830;SHT30;58451;51.550;7.208;2023-06-10T02:12:50;17.59;65.43
70830;SHT30;58451;51.550;7.208;2023-06-10T02:14:24;17.58;65.62
70830;SHT30;58451;51.550;7.208;2023-06-10T02:16:38;17.57;65.60
70830;SHT30;58451;51.550;7.208;2023-06-10T02:18:17;17.54;65.57
70830;SHT30;58451;51.550;7.208;2023-06-10T02:19:53;17.53;65.68
70830;SHT30;58451;51.550;7.208;2023-06-10T02:21:25;17.52;65.78
70830;SHT30;58451;51.550;7.208;2023-06-10T02:22:59;17.50;65.87
70830;SHT30;58451;51.550;7.208;2023-06-10T02:24:40;17.49;65.87
70830;SHT30;58451;51.550;7.208;2023-06-10T02:26:15;17.47;65.98
70830;SHT30;58451;51.550;7.208;2023-06-10T02:27:48;17.45;65.98
70830;SHT30;58451;51.550;7.208;2023-06-10T02:29:21;17.44;66.13
70830;SHT30;58451;51.550;7.208;2023-06-10T02:30:54;17.42;66.18
70830;SHT30;58451;51.550;7.208;2023-06-10T02:32:31;17.40;66.25
70830;SHT30;58451;51.550;7.208;2023-06-10T02:34:06;17.39;66.38
70830;SHT30;58451;51.550;7.208;2023-06-10T02:35:52;17.36;66.37
70830;SHT30;58451;51.550;7.208;2023-06-10T02:40:00;17.31;66.42
70830;SHT30;58451;51.550;7.208;2023-06-10T02:41:54;17.28;66.47
70830;SHT30;58451;51.550;7.208;2023-06-10T02:43:35;17.29;66.48
70830;SHT30;58451;51.550;7.208;2023-06-10T02:46:14;17.26;66.53
70830;SHT30;58451;51.550;7.208;2023-06-10T02:49:27;17.24;66.87
70830;SHT30;58451;51.550;7.208;2023-06-10T02:51:00;17.21;66.90
70830;SHT30;58451;51.550;7.208;2023-06-10T02:52:39;17.19;66.93
70830;SHT30;58451;51.550;7.208;2023-06-10T02:54:11;17.18;67.07
70830;SHT30;58451;51.550;7.208;2023-06-10T02:55:44;17.16;67.07
70830;SHT30;58451;51.550;7.208;2023-06-10T02:57:17;17.16;67.07
70830;SHT30;58451;51.550;7.208;2023-06-10T02:58:49;17.14;67.35
70830;SHT30;58451;51.550;7.208;2023-06-10T03:00:23;17.12;67.25
70830;SHT30;58451;51.550;7.208;2023-06-10T03:01:55;17.11;67.30
70830;SHT30;58451;51.550;7.208;2023-06-10T03:03:27;17.09;67.30
70830;SHT30;58451;51.550;7.208;2023-06-10T03:05:04;17.08;67.38
70830;SHT30;58451;51.550;7.208;2023-06-10T03:06:42;17.06;67.42
70830;SHT30;58451;51.550;7.208;2023-06-10T03:08:21;17.05;67.45
70830;SHT30;58451;51.550;7.208;2023-06-10T03:09:53;17.03;67.52
70830;SHT30;58451;51.550;7.208;2023-06-10T03:11:25;17.02;67.60
70830;SHT30;58451;51.550;7.208;2023-06-10T03:12:57;17.00;67.72
70830;SHT30;58451;51.550;7.208;2023-06-10T03:14:30;17.00;67.73
70830;SHT30;58451;51.550;7.208;2023-06-10T03:16:01;16.98;67.75
70830;SHT30;58451;51.550;7.208;2023-06-10T03:17:35;16.98;67.75
70830;SHT30;58451;51.550;7.208;2023-06-10T03:19:07;16.95;67.87
70830;SHT30;58451;51.550;7.208;2023-06-10T03:20:39;16.94;67.88
70830;SHT30;58451;51.550;7.208;2023-06-10T03:22:12;16.93;67.83
70830;SHT30;58451;51.550;7.208;2023-06-10T03:24:04;16.92;67.92
70830;SHT30;58451;51.550;7.208;2023-06-10T03:25:37;16.91;68.02
70830;SHT30;58451;51.550;7.208;2023-06-10T03:27:12;16.90;68.12
70830;SHT30;58451;51.550;7.208;2023-06-10T03:28:45;16.89;68.18
70830;SHT30;58451;51.550;7.208;2023-06-10T03:30:17;16.89;68.32
70830;SHT30;58451;51.550;7.208;2023-06-10T03:31:49;16.90;68.25
70830;SHT30;58451;51.550;7.208;2023-06-10T03:33:21;16.90;68.30
70830;SHT30;58451;51.550;7.208;2023-06-10T03:34:53;16.92;68.28
70830;SHT30;58451;51.550;7.208;2023-06-10T03:36:29;16.92;68.25
70830;SHT30;58451;51.550;7.208;2023-06-10T03:38:01;16.92;68.38
70830;SHT30;58451;51.550;7.208;2023-06-10T03:39:33;16.95;68.18
70830;SHT30;58451;51.550;7.208;2023-06-10T03:41:05;16.95;68.10
70830;SHT30;58451;51.550;7.208;2023-06-10T03:42:37;16.96;68.27
70830;SHT30;58451;51.550;7.208;2023-06-10T03:44:09;16.97;68.18
70830;SHT30;58451;51.550;7.208;2023-06-10T03:45:41;16.97;68.12
70830;SHT30;58451;51.550;7.208;2023-06-10T03:47:13;16.98;68.08
70830;SHT30;58451;51.550;7.208;2023-06-10T03:48:45;17.00;68.07
70830;SHT30;58451;51.550;7.208;2023-06-10T03:50:17;17.00;68.08
70830;SHT30;58451;51.550;7.208;2023-06-10T03:51:49;17.00;68.03
70830;SHT30;58451;51.550;7.208;2023-06-10T03:53:21;17.01;67.98
70830;SHT30;58451;51.550;7.208;2023-06-10T03:54:53;17.03;67.92
70830;SHT30;58451;51.550;7.208;2023-06-10T03:56:25;17.04;67.93
70830;SHT30;58451;51.550;7.208;2023-06-10T03:57:57;17.05;67.87
70830;SHT30;58451;51.550;7.208;2023-06-10T03:59:29;17.06;67.90
70830;SHT30;58451;51.550;7.208;2023-06-10T04:01:01;17.11;67.78
70830;SHT30;58451;51.550;7.208;2023-06-10T04:02:36;17.12;67.67
70830;SHT30;58451;51.550;7.208;2023-06-10T04:04:08;17.14;67.60
70830;SHT30;58451;51.550;7.208;2023-06-10T04:05:41;17.17;67.47
70830;SHT30;58451;51.550;7.208;2023-06-10T04:07:13;17.19;67.53
70830;SHT30;58451;51.550;7.208;2023-06-10T04:08:45;17.21;67.42
70830;SHT30;58451;51.550;7.208;2023-06-10T04:10:17;17.23;67.28
70830;SHT30;58451;51.550;7.208;2023-06-10T04:11:49;17.27;67.22
70830;SHT30;58451;51.550;7.208;2023-06-10T04:13:21;17.29;67.27
70830;SHT30;58451;51.550;7.208;2023-06-10T04:14:57;17.32;67.23
70830;SHT30;58451;51.550;7.208;2023-06-10T04:16:29;17.36;67.23
70830;SHT30;58451;51.550;7.208;2023-06-10T04:18:01;17.39;66.95
70830;SHT30;58451;51.550;7.208;2023-06-10T04:19:33;17.43;66.88
70830;SHT30;58451;51.550;7.208;2023-06-10T04:21:05;17.46;66.80
70830;SHT30;58451;51.550;7.208;2023-06-10T04:22:37;17.49;66.78
70830;SHT30;58451;51.550;7.208;2023-06-10T04:24:09;17.52;66.57
70830;SHT30;58451;51.550;7.208;2023-06-10T04:25:41;17.57;66.47
70830;SHT30;58451;51.550;7.208;2023-06-10T04:27:13;17.60;66.52
70830;SHT30;58451;51.550;7.208;2023-06-10T04:28:45;17.64;66.30
70830;SHT30;58451;51.550;7.208;2023-06-10T04:30:17;17.68;66.35
70830;SHT30;58451;51.550;7.208;2023-06-10T04:31:49;17.72;66.17
70830;SHT30;58451;51.550;7.208;2023-06-10T04:33:22;17.75;66.00
70830;SHT30;58451;51.550;7.208;2023-06-10T04:34:54;17.79;65.92
70830;SHT30;58451;51.550;7.208;2023-06-10T04:36:25;17.83;65.85
70830;SHT30;58451;51.550;7.208;2023-06-10T04:37:57;17.88;65.78
70830;SHT30;58451;51.550;7.208;2023-06-10T04:39:29;17.91;65.65
70830;SHT30;58451;51.550;7.208;2023-06-10T04:41:01;17.94;65.53
70830;SHT30;58451;51.550;7.208;2023-06-10T04:42:36;17.98;65.40
70830;SHT30;58451;51.550;7.208;2023-06-10T04:44:09;18.01;65.27
70830;SHT30;58451;51.550;7.208;2023-06-10T04:45:42;18.03;65.18
70830;SHT30;58451;51.550;7.208;2023-06-10T04:47:17;18.09;65.07
70830;SHT30;58451;51.550;7.208;2023-06-10T04:48:49;18.13;64.93
70830;SHT30;58451;51.550;7.208;2023-06-10T04:50:21;18.17;64.73
70830;SHT30;58451;51.550;7.208;2023-06-10T04:51:53;18.21;64.62
70830;SHT30;58451;51.550;7.208;2023-06-10T04:53:25;18.25;64.50
70830;SHT30;58451;51.550;7.208;2023-06-10T04:54:57;18.30;64.32
70830;SHT30;58451;51.550;7.208;2023-06-10T04:56:30;18.34;64.15
70830;SHT30;58451;51.550;7.208;2023-06-10T04:58:02;18.40;64.03
70830;SHT30;58451;51.550;7.208;2023-06-10T04:59:34;18.43;63.87
70830;SHT30;58451;51.550;7.208;2023-06-10T05:01:09;18.48;63.72
70830;SHT30;58451;51.550;7.208;2023-06-10T05:02:40;18.53;63.53
70830;SHT30;58451;51.550;7.208;2023-06-10T05:04:12;18.56;63.43
70830;SHT30;58451;51.550;7.208;2023-06-10T05:05:44;18.62;63.25
70830;SHT30;58451;51.550;7.208;2023-06-10T05:07:16;18.67;63.12
70830;SHT30;58451;51.550;7.208;2023-06-10T05:08:48;18.71;62.93
70830;SHT30;58451;51.550;7.208;2023-06-10T05:10:20;18.76;62.85
70830;SHT30;58451;51.550;7.208;2023-06-10T05:11:52;18.78;62.70
70830;SHT30;58451;51.550;7.208;2023-06-10T05:13:25;18.83;62.55
70830;SHT30;58451;51.550;7.208;2023-06-10T05:14:56;18.88;62.43
70830;SHT30;58451;51.550;7.208;2023-06-10T05:16:28;18.93;62.32
70830;SHT30;58451;51.550;7.208;2023-06-10T05:18:00;18.98;62.12
70830;SHT30;58451;51.550;7.208;2023-06-10T05:19:34;19.04;61.97
70830;SHT30;58451;51.550;7.208;2023-06-10T05:21:07;19.07;61.78
70830;SHT30;58451;51.550;7.208;2023-06-10T05:22:39;19.10;61.78
70830;SHT30;58451;51.550;7.208;2023-06-10T05:24:10;19.18;61.57
70830;SHT30;58451;51.550;7.208;2023-06-10T05:25:43;19.22;61.38
70830;SHT30;58451;51.550;7.208;2023-06-10T05:27:15;19.26;61.18
70830;SHT30;58451;51.550;7.208;2023-06-10T05:28:47;19.31;61.00
70830;SHT30;58451;51.550;7.208;2023-06-10T05:30:19;19.36;60.93
70830;SHT30;58451;51.550;7.208;2023-06-10T05:31:51;19.42;60.73
70830;SHT30;58451;51.550;7.208;2023-06-10T05:33:23;19.48;60.67
70830;SHT30;58451;51.550;7.208;2023-06-10T05:34:55;19.52;60.52
70830;SHT30;58451;51.550;7.208;2023-06-10T05:36:27;19.59;60.17
70830;SHT30;58451;51.550;7.208;2023-06-10T05:37:59;19.62;60.03
70830;SHT30;58451;51.550;7.208;2023-06-10T05:39:35;19.67;59.78
70830;SHT30;58451;51.550;7.208;2023-06-10T05:41:11;19.73;59.80
70830;SHT30;58451;51.550;7.208;2023-06-10T05:42:43;19.79;59.63
70830;SHT30;58451;51.550;7.208;2023-06-10T05:44:14;19.85;59.35
70830;SHT30;58451;51.550;7.208;2023-06-10T05:45:46;19.90;59.00
70830;SHT30;58451;51.550;7.208;2023-06-10T05:47:18;19.95;59.02
70830;SHT30;58451;51.550;7.208;2023-06-10T05:48:50;20.01;58.78
70830;SHT30;58451;51.550;7.208;2023-06-10T05:50:23;20.06;58.63
70830;SHT30;58451;51.550;7.208;2023-06-10T05:51:55;20.12;58.27
70830;SHT30;58451;51.550;7.208;2023-06-10T05:53:29;20.18;58.30
70830;SHT30;58451;51.550;7.208;2023-06-10T05:55:02;20.26;57.95
70830;SHT30;58451;51.550;7.208;2023-06-10T05:56:34;20.33;57.90
70830;SHT30;58451;51.550;7.208;2023-06-10T05:58:06;20.41;57.65
70830;SHT30;58451;51.550;7.208;2023-06-10T05:59:38;20.48;57.08
70830;SHT30;58451;51.550;7.208;2023-06-10T06:01:10;20.52;57.05
70830;SHT30;58451;51.550;7.208;2023-06-10T06:02:41;20.57;56.83
70830;SHT30;58451;51.550;7.208;2023-06-10T06:04:14;20.60;56.67
70830;SHT30;58451;51.550;7.208;2023-06-10T06:05:45;20.66;56.60
70830;SHT30;58451;51.550;7.208;2023-06-10T06:07:17;20.72;56.12
70830;SHT30;58451;51.550;7.208;2023-06-10T06:08:52;20.76;55.58
70830;SHT30;58451;51.550;7.208;2023-06-10T06:10:23;20.78;55.45
70830;SHT30;58451;51.550;7.208;2023-06-10T06:11:55;20.82;55.40
70830;SHT30;58451;51.550;7.208;2023-06-10T06:13:27;20.88;55.32
70830;SHT30;58451;51.550;7.208;2023-06-10T06:14:59;20.93;55.07
70830;SHT30;58451;51.550;7.208;2023-06-10T06:16:31;21.00;55.13
70830;SHT30;58451;51.550;7.208;2023-06-10T06:18:04;21.05;54.67
70830;SHT30;58451;51.550;7.208;2023-06-10T06:19:36;21.08;54.50
70830;SHT30;58451;51.550;7.208;2023-06-10T06:21:08;21.13;54.50
70830;SHT30;58451;51.550;7.208;2023-06-10T06:22:39;21.18;54.32
70830;SHT30;58451;51.550;7.208;2023-06-10T06:24:12;21.23;54.12
70830;SHT30;58451;51.550;7.208;2023-06-10T06:25:44;21.27;53.98
70830;SHT30;58451;51.550;7.208;2023-06-10T06:27:15;21.34;54.13
70830;SHT30;58451;51.550;7.208;2023-06-10T06:28:48;21.41;53.85
70830;SHT30;58451;51.550;7.208;2023-06-10T06:30:19;21.48;53.77
70830;SHT30;58451;51.550;7.208;2023-06-10T06:31:51;21.53;53.48
70830;SHT30;58451;51.550;7.208;2023-06-10T06:33:23;21.56;53.20
70830;SHT30;58451;51.550;7.208;2023-06-10T06:34:57;21.58;53.18
70830;SHT30;58451;51.550;7.208;2023-06-10T06:36:30;21.65;53.17
70830;SHT30;58451;51.550;7.208;2023-06-10T06:38:01;21.70;53.38
70830;SHT30;58451;51.550;7.208;2023-06-10T06:39:36;21.79;53.45
70830;SHT30;58451;51.550;7.208;2023-06-10T06:41:07;21.88;53.22
70830;SHT30;58451;51.550;7.208;2023-06-10T06:42:39;21.99;53.03
70830;SHT30;58451;51.550;7.208;2023-06-10T06:44:40;22.04;52.52
70830;SHT30;58451;51.550;7.208;2023-06-10T06:46:12;22.10;52.80
70830;SHT30;58451;51.550;7.208;2023-06-10T06:47:48;22.17;52.73
70830;SHT30;58451;51.550;7.208;2023-06-10T06:49:20;22.26;52.57
70830;SHT30;58451;51.550;7.208;2023-06-10T06:50:54;22.34;52.05
70830;SHT30;58451;51.550;7.208;2023-06-10T06:52:45;22.43;52.02
70830;SHT30;58451;51.550;7.208;2023-06-10T06:54:30;22.50;51.63
70830;SHT30;58451;51.550;7.208;2023-06-10T06:56:02;22.59;51.60
70830;SHT30;58451;51.550;7.208;2023-06-10T06:57:34;22.66;51.48
70830;SHT30;58451;51.550;7.208;2023-06-10T06:59:07;22.73;51.23
70830;SHT30;58451;51.550;7.208;2023-06-10T07:00:39;22.82;51.22
70830;SHT30;58451;51.550;7.208;2023-06-10T07:02:11;22.90;50.95
70830;SHT30;58451;51.550;7.208;2023-06-10T07:03:43;22.97;51.08
70830;SHT30;58451;51.550;7.208;2023-06-10T07:05:15;23.07;50.75
70830;SHT30;58451;51.550;7.208;2023-06-10T07:06:47;23.14;50.72
70830;SHT30;58451;51.550;7.208;2023-06-10T07:08:19;23.21;50.38
70830;SHT30;58451;51.550;7.208;2023-06-10T07:09:52;23.24;50.33
70830;SHT30;58451;51.550;7.208;2023-06-10T07:11:24;23.31;50.03
70830;SHT30;58451;51.550;7.208;2023-06-10T07:12:56;23.39;49.63
70830;SHT30;58451;51.550;7.208;2023-06-10T07:14:28;23.46;49.80
70830;SHT30;58451;51.550;7.208;2023-06-10T07:16:00;23.55;49.58
70830;SHT30;58451;51.550;7.208;2023-06-10T07:17:32;23.64;49.57
70830;SHT30;58451;51.550;7.208;2023-06-10T07:19:03;23.73;49.33
70830;SHT30;58451;51.550;7.208;2023-06-10T07:20:36;23.76;49.05
70830;SHT30;58451;51.550;7.208;2023-06-10T07:22:08;23.78;48.73
70830;SHT30;58451;51.550;7.208;2023-06-10T07:23:43;23.80;48.55
70830;SHT30;58451;51.550;7.208;2023-06-10T07:25:16;23.82;48.40
70830;SHT30;58451;51.550;7.208;2023-06-10T07:26:47;23.85;48.15
70830;SHT30;58451;51.550;7.208;2023-06-10T07:28:19;23.87;48.07
70830;SHT30;58451;51.550;7.208;2023-06-10T07:29:51;23.92;47.80
70830;SHT30;58451;51.550;7.208;2023-06-10T07:31:23;23.98;48.13
70830;SHT30;58451;51.550;7.208;2023-06-10T07:32:56;24.07;48.20
70830;SHT30;58451;51.550;7.208;2023-06-10T07:34:28;24.16;48.02
70830;SHT30;58451;51.550;7.208;2023-06-10T07:36:00;24.25;47.87
70830;SHT30;58451;51.550;7.208;2023-06-10T07:37:31;24.32;47.62
70830;SHT30;58451;51.550;7.208;2023-06-10T07:39:04;24.43;47.45
70830;SHT30;58451;51.550;7.208;2023-06-10T07:40:36;24.44;46.48
70830;SHT30;58451;51.550;7.208;2023-06-10T07:42:08;24.47;46.53
70830;SHT30;58451;51.550;7.208;2023-06-10T07:43:39;24.48;45.88
70830;SHT30;58451;51.550;7.208;2023-06-10T07:45:11;24.48;45.93
70830;SHT30;58451;51.550;7.208;2023-06-10T07:46:43;24.49;46.12
70830;SHT30;58451;51.550;7.208;2023-06-10T07:48:15;24.53;45.87
70830;SHT30;58451;51.550;7.208;2023-06-10T07:49:47;24.58;46.02
70830;SHT30;58451;51.550;7.208;2023-06-10T07:51:19;24.63;46.20
70830;SHT30;58451;51.550;7.208;2023-06-10T07:52:50;24.72;46.37
70830;SHT30;58451;51.550;7.208;2023-06-10T07:54:22;24.83;46.42
70830;SHT30;58451;51.550;7.208;2023-06-10T07:55:54;24.92;46.22
70830;SHT30;58451;51.550;7.208;2023-06-10T07:57:26;24.99;46.25
70830;SHT30;58451;51.550;7.208;2023-06-10T07:58:58;25.08;45.95
70830;SHT30;58451;51.550;7.208;2023-06-10T08:00:30;25.10;45.15
70830;SHT30;58451;51.550;7.208;2023-06-10T08:02:02;25.11;45.07
70830;SHT30;58451;51.550;7.208;2023-06-10T08:03:34;25.13;45.20
70830;SHT30;58451;51.550;7.208;2023-06-10T08:05:06;25.17;45.40
70830;SHT30;58451;51.550;7.208;2023-06-10T08:06:39;25.20;45.27
70830;SHT30;58451;51.550;7.208;2023-06-10T08:08:11;25.29;45.40
70830;SHT30;58451;51.550;7.208;2023-06-10T08:09:44;25.36;45.07
70830;SHT30;58451;51.550;7.208;2023-06-10T08:11:16;25.39;45.02
70830;SHT30;58451;51.550;7.208;2023-06-10T08:12:48;25.43;45.25
70830;SHT30;58451;51.550;7.208;2023-06-10T08:14:19;25.53;45.20
70830;SHT30;58451;51.550;7.208;2023-06-10T08:15:51;25.62;44.87
70830;SHT30;58451;51.550;7.208;2023-06-10T08:17:25;25.66;44.72
70830;SHT30;58451;51.550;7.208;2023-06-10T08:18:59;25.71;44.48
70830;SHT30;58451;51.550;7.208;2023-06-10T08:20:31;25.75;44.48
70830;SHT30;58451;51.550;7.208;2023-06-10T08:22:03;25.83;44.25
70830;SHT30;58451;51.550;7.208;2023-06-10T08:23:35;25.87;43.85
70830;SHT30;58451;51.550;7.208;2023-06-10T08:25:07;25.87;43.75
70830;SHT30;58451;51.550;7.208;2023-06-10T08:26:40;25.89;43.95
70830;SHT30;58451;51.550;7.208;2023-06-10T08:28:12;25.95;44.13
70830;SHT30;58451;51.550;7.208;2023-06-10T08:29:44;26.05;44.27
70830;SHT30;58451;51.550;7.208;2023-06-10T08:31:16;26.15;43.68
70830;SHT30;58451;51.550;7.208;2023-06-10T08:32:47;26.21;43.62
70830;SHT30;58451;51.550;7.208;2023-06-10T08:34:19;26.27;43.62
70830;SHT30;58451;51.550;7.208;2023-06-10T08:35:51;26.36;43.35
70830;SHT30;58451;51.550;7.208;2023-06-10T08:37:23;26.45;43.42
70830;SHT30;58451;51.550;7.208;2023-06-10T08:38:58;26.51;42.40
70830;SHT30;58451;51.550;7.208;2023-06-10T08:40:29;26.53;42.30
70830;SHT30;58451;51.550;7.208;2023-06-10T08:42:14;26.53;41.90
70830;SHT30;58451;51.550;7.208;2023-06-10T08:44:16;26.53;42.47
70830;SHT30;58451;51.550;7.208;2023-06-10T08:45:55;26.59;42.35
70830;SHT30;58451;51.550;7.208;2023-06-10T08:47:46;26.65;42.12
70830;SHT30;58451;51.550;7.208;2023-06-10T08:49:48;26.69;41.87
70830;SHT30;58451;51.550;7.208;2023-06-10T08:52:06;26.73;41.12
70830;SHT30;58451;51.550;7.208;2023-06-10T08:53:43;26.70;41.12
70830;SHT30;58451;51.550;7.208;2023-06-10T08:57:13;26.77;41.73
70830;SHT30;58451;51.550;7.208;2023-06-10T08:58:48;26.86;41.65
70830;SHT30;58451;51.550;7.208;2023-06-10T09:00:20;26.96;41.25
70830;SHT30;58451;51.550;7.208;2023-06-10T09:01:53;27.05;41.13
70830;SHT30;58451;51.550;7.208;2023-06-10T09:03:26;27.12;41.00
70830;SHT30;58451;51.550;7.208;2023-06-10T09:05:00;27.19;41.05
70830;SHT30;58451;51.550;7.208;2023-06-10T09:06:33;27.27;40.92
70830;SHT30;58451;51.550;7.208;2023-06-10T09:08:07;27.34;40.85
70830;SHT30;58451;51.550;7.208;2023-06-10T09:09:41;27.42;40.73
70830;SHT30;58451;51.550;7.208;2023-06-10T09:11:15;27.50;40.83
70830;SHT30;58451;51.550;7.208;2023-06-10T09:12:47;27.60;40.77
70830;SHT30;58451;51.550;7.208;2023-06-10T09:14:20;27.68;40.20
70830;SHT30;58451;51.550;7.208;2023-06-10T09:15:52;27.69;39.78
70830;SHT30;58451;51.550;7.208;2023-06-10T09:17:24;27.68;40.22
70830;SHT30;58451;51.550;7.208;2023-06-10T09:18:56;27.75;39.58
70830;SHT30;58451;51.550;7.208;2023-06-10T09:20:28;27.74;39.63
70830;SHT30;58451;51.550;7.208;2023-06-10T09:22:00;27.74;39.92
70830;SHT30;58451;51.550;7.208;2023-06-10T09:23:32;27.77;40.05
70830;SHT30;58451;51.550;7.208;2023-06-10T09:25:08;27.85;40.22
70830;SHT30;58451;51.550;7.208;2023-06-10T09:26:43;27.95;39.68
70830;SHT30;58451;51.550;7.208;2023-06-10T09:28:17;28.05;39.55
70830;SHT30;58451;51.550;7.208;2023-06-10T09:29:55;28.11;39.42
70830;SHT30;58451;51.550;7.208;2023-06-10T09:31:29;28.20;39.53
70830;SHT30;58451;51.550;7.208;2023-06-10T09:33:02;28.28;39.18
70830;SHT30;58451;51.550;7.208;2023-06-10T09:34:42;28.36;39.30
70830;SHT30;58451;51.550;7.208;2023-06-10T09:36:22;28.41;39.23
70830;SHT30;58451;51.550;7.208;2023-06-10T09:37:59;28.44;39.45
70830;SHT30;58451;51.550;7.208;2023-06-10T09:39:33;28.46;39.58
70830;SHT30;58451;51.550;7.208;2023-06-10T09:41:05;28.53;39.38
70830;SHT30;58451;51.550;7.208;2023-06-10T09:42:37;28.61;39.02
70830;SHT30;58451;51.550;7.208;2023-06-10T09:44:13;28.59;38.60
70830;SHT30;58451;51.550;7.208;2023-06-10T09:45:50;28.58;38.70
70830;SHT30;58451;51.550;7.208;2023-06-10T09:47:25;28.55;38.72
70830;SHT30;58451;51.550;7.208;2023-06-10T09:48:57;28.53;38.72
70830;SHT30;58451;51.550;7.208;2023-06-10T09:50:32;28.50;38.55
70830;SHT30;58451;51.550;7.208;2023-06-10T09:52:06;28.45;38.52
70830;SHT30;58451;51.550;7.208;2023-06-10T09:53:38;28.44;38.68
70830;SHT30;58451;51.550;7.208;2023-06-10T09:55:10;28.46;38.93
70830;SHT30;58451;51.550;7.208;2023-06-10T09:56:42;28.49;38.92
70830;SHT30;58451;51.550;7.208;2023-06-10T09:58:14;28.50;38.65
70830;SHT30;58451;51.550;7.208;2023-06-10T09:59:46;28.53;39.12
70830;SHT30;58451;51.550;7.208;2023-06-10T10:01:18;28.60;38.72
70830;SHT30;58451;51.550;7.208;2023-06-10T10:02:52;28.61;38.73
70830;SHT30;58451;51.550;7.208;2023-06-10T10:04:25;28.63;38.20